Auburn, MA (01501)

11:15 PM EDT on September 02, 2014 (GMT -0400)
Pakachoag Golf Course Vicinity | Change Station
CLOSE
Current Station
Personal Weather Station
Location: Auburn, MA
Elevation: 640 ft
Nearby Weather Stations

Elev 640 ft 42.22 °N, 71.81 °W | Updated 22 seconds ago

Clear
Clear
73.2 °F
Feels Like 73.2 °F
N
0.0
Wind Variable Wind from SW
Gusts 4.0 mph

Today
High -- | Low -- °F
--% Chance of Precip.
Yesterday
High -- | Low -- °F
Precip. -- in
6:13 AM 7:19 PM
First Quarter, 57% visible
Pressure 29.78 in
Visibility 10.0 miles
Clouds Clear
Dew Point 72 °F
Humidity 96%
Rainfall 0.48 in
Snow Depth Not available.
UV 0 out of 12
Pollen 8.20 out of 12
PM2.5 Good
Flu Activity Not available.
METAR KORH 030254Z AUTO 22010KT 10SM CLR 23/21 A2980 RMK AO2 SLP083 T02330211 57010

More Conditions Fewer Conditions

Pressure 29.78 in
Visibility 10.0 miles
Clouds Clear
Dew Point 72 °F
Humidity 96%
Rainfall 0.48 in
Snow Depth Not available.
UV 0 out of 12
Pollen 8.20 out of 12
PM2.5 Good
Flu Activity Not available.
METAR KORH 030254Z AUTO 22010KT 10SM CLR 23/21 A2980 RMK AO2 SLP083 T02330211 57010

More Conditions Fewer Conditions

10-Day Weather Forecast

Almanac

Astronomy

Sep. 02, 2014 Rise Set
Actual Time 6:13 AM EDT 7:19 PM EDT
Civil Twilight 5:44 AM EDT 7:48 PM EDT
Nautical Twilight 5:10 AM EDT 8:22 PM EDT
Astronomical Twilight 4:34 AM EDT 8:58 PM EDT
Moon 2:02 PM EDT (9/2) No Moon Set
Length of Visible Light 14h 03m
Length of Day
13h 05m
Tomorrow will be 2m 44s shorter.
First Quarter, 57% of the Moon is Illuminated
Today
First Quarter
Sep 8
Full
Sep 15
Last Quarter
Sep 24
New
Oct 1
First Quarter

Today's Extremes

State Highs State Lows

Community

WunderPhotos

Upload Photos

1,749,862 photos uploaded!

Nearby

Air Quality

  Air Quality AQ Index Pollutant
Yesterday Good
OZONE
Yesterday Good
PM2.5
Current Good
PM2.5
Tuesday Moderate
PM2.5
Tuesday Good
OZONE
Wednesday Good
PM2.5
Wednesday Good
OZONE

Snow Depth

Station Depth Elevation
No new snow has been reported.

Earthquake Activity

City Distance Mag. Time & Date
No recent earthquake activity has been reported nearby.
Minimum magnitude displayed is 2.5.

Coastal Water Temperatures

Place Temperature
No Stations Reporting

Nearby Weather Stations